Last 30 Days

AM-Summit 8643' (Ward Mt.)

Daily Data | America/Los_Angeles
as of 2/24/24 1:45 AM PST
Date Daily Max Temp (°F) Time of Max Temp Daily Min Temp (°F) Time of Min Temp Wind Spd (mph) Daily Max Wind (mph) Time of Max Wind Max Wind Dir (°) Dew Pt (°F) Max RH (%) Min RH (%) Max Wet Bulb Temp (°F) Min Wet Bulb Temp (°F) WetB Hrs <28F (hrs) Min Wind Chill (°F) Wind Chill Time MinBV Day (V)
2/23/24 31.2 1632 20.6 0256 20.5 39.8 0903 NE | 37 25.8 100 100 31.1 20.5 17.3 2.9 0710 13.0
2/22/24 31.5 1557 16.2 0413 10.4 26.8 1354 S | 180 23.1 100 99 31.5 16.1 20.1 2.6 0104 13.0
2/21/24 28.4 1048 19.4 2358 29.1 68.2 1309 SW | 220 23.7 100 100 28.3 19.3 23.0 0.8 0420 13.0
2/20/24 28.1 1424 22.0 0622 42.2 88.2 1544 SE | 145 24.0 100 100 28.0 21.9 24.0 -3.4 0816 13.0
2/19/24 29.1 0001 23.2 0845 63.6 136.5 0319 S | 175 25.8 100 100 29.0 23.1 22.6 -3.5 0837 13.0
2/18/24 30.2 2228 23.3 1018 51.6 117.6 2202 SSE | 165 26.7 100 100 30.1 23.2 15.4 -0.2 0220 13.0
2/17/24 30.1 1529 24.7 0407 38.4 114.9 2158 SSE | 163 24.4 100 69 29.2 22.5 22.4 -0.7 2304 13.0
2/16/24 31.9 1427 20.9 0233 13.6 38.7 2354 SSE | 168 27.1 100 96 31.8 20.7 14.1 1.6 0200 13.0
2/15/24 26.9 1321 21.3 1937 41.5 108.3 0149 S | 183 23.1 100 99 26.7 21.2 24.0 -6.9 0149 13.0
2/14/24 25.4 1213 20.6 0512 55.2 120.9 2107 S | 172 22.1 100 74 25.3 20.2 24.0 -4.1 2358 13.0
2/13/24 32.7 1519 21.8 2108 29.0 55.7 1603 S | 184 18.6 100 47 30.0 20.1 21.5 3.0 2236 13.0
2/12/24 36.3 1414 24.5 0136 19.9 36.2 1959 S | 174 18.6 94 46 32.5 21.2 17.1 8.7 0455 13.0
2/11/24 32.2 1626 17.8 0001 6.8 23.1 0313 SW | 221 25.5 100 55 32.2 17.7 14.9 2.5 0329 13.0
2/10/24 25.1 1606 12.3 0445 47.0 95.9 0749 NNE | 20 16.0 100 98 25.0 12.3 24.0 -18.6 0523 13.0
2/9/24 23.9 1339 13.3 2358 26.1 76.0 2228 NE | 37 17.9 100 98 23.7 13.2 24.0 -15.1 2355 13.0
2/8/24 26.6 1251 15.1 2357 16.8 42.7 0006 NE | 34 19.2 100 99 26.5 15.0 24.0 -2.9 0006 13.0
2/7/24 22.2 1455 17.9 2029 32.6 65.0 1005 SSE | 156 19.8 100 99 22.0 17.8 24.0 -5.7 0837 13.0
2/6/24 30.2 1432 20.9 2357 7.1 25.0 2358 SSW | 195 24.0 100 100 30.1 20.8 19.2 3.8 2358 13.0
2/5/24 25.2 1431 22.2 0728 46.5 161.5 0030 SSE | 168 23.6 100 100 25.0 22.1 24.0 -6.0 0046 13.0
2/4/24 29.4 1242 18.1 0003 47.1 141.7 1847 SE | 139 23.7 100 99 29.3 18.0 21.1 -3.2 2328 13.0
2/3/24 25.8 1307 13.4 0557 22.6 63.9 0035 SSW | 203 18.0 100 97 25.7 13.3 24.0 -13.1 0158 13.0
2/2/24 22.2 0854 14.7 2354 42.5 87.4 1730 SSW | 196 18.9 100 97 22.1 14.6 24.0 -12.5 2259 13.0
2/1/24 27.8 0147 19.2 2359 34.8 88.7 0003 S | 190 24.1 100 98 27.7 19.1 24.0 -2.5 2350 13.0
1/31/24 36.2 0001 26.8 1637 49.6 100.8 2259 SSW | 196 24.4 100 50 30.8 26.5 6.2 3.1 2358 13.0
1/30/24 43.9 1517 33.8 2217 32.2 84.2 2343 SSE | 165 29.0 94 42 38.9 29.4 0.0 16.1 2302 13.0
1/29/24 48.2 1604 37.8 0713 14.8 33.2 0042 NNE | 28 29.2 82 42 41.4 34.1 0.0 26.5 0648 13.0
1/28/24 49.6 1548 39.6 0138 4.8 34.5 0316 SE | 136 29.9 71 46 42.2 35.6 0.0 29.7 0316 13.0
1/27/24 45.0 1439 35.8 0257 0.2 2.6 1731 S | 183 33.2 100 55 40.1 35.2 0.0 35.8 0259 13.0
1/26/24 36.6 2306 20.6 0105 10.4 43.3 1255 SW | 217 28.8 100 91 36.7 20.5 10.7 5.3 0740 13.0
1/25/24 31.5 1548 20.4 2235 16.4 79.3 0055 SSE | 163 24.7 100 100 31.5 20.3 20.9 -1.6 0414 13.0
Max 49.6 - 39.6 - 63.6 161.5 - - 33.2 100 100 42.2 35.6 24.0 35.8 - 13.0
Avg - - - - 29.1 - - - 23.8 - - - - - - - -
Min 22.2 - 12.3 - 0.2 2.6 - - 16.0 71 42 22.0 12.3 0.0 -18.6 - 13.0